Time;durP1;ratioP1;P1;durP2;ratioP2;P2;SDS_P1;SDS_P2;PMS_P1;PMS_P2;Temp;Humidity;BMP_temperature;BMP_pressure;BME280_temperature;BME280_humidity;BME280_pressure;Samples;Min_cycle;Max_cycle;Signal;HPM_P1;HPM_P2
2022/12/07 05:33:24;;;;;;;60.65;26.17;;;1.90;99.90;;;;;;7582113;19;21448;-72
2022/12/07 05:35:56;;;;;;;70.72;29.77;;;1.90;99.90;;;;;;7590208;19;20021;-72
2022/12/07 05:38:29;;;;;;;70.75;29.70;;;2.00;99.90;;;;;;7597703;19;20011;-71
2022/12/07 05:41:03;;;;;;;59.58;27.73;;;2.00;99.90;;;;;;7571336;19;20132;-69
2022/12/07 05:43:35;;;;;;;65.72;28.08;;;2.00;99.90;;;;;;7561537;19;20033;-68
2022/12/07 05:46:08;;;;;;;69.10;29.90;;;2.20;99.90;;;;;;7586503;19;20022;-72
2022/12/07 05:48:40;;;;;;;57.67;26.67;;;2.20;99.90;;;;;;7594861;19;20021;-71
2022/12/07 05:51:12;;;;;;;58.23;28.40;;;2.20;99.90;;;;;;7584612;19;20014;-69
2022/12/07 05:53:46;;;;;;;57.00;27.27;;;2.30;99.90;;;;;;7593303;19;20286;-69
2022/12/07 05:56:18;;;;;;;66.78;28.77;;;2.30;99.90;;;;;;7558778;19;20063;-72
2022/12/07 06:02:04;;;;;;;63.33;28.55;;;2.30;99.90;;;;;;7581562;19;20029;-71
2022/12/07 06:04:42;;;;;;;73.47;30.75;;;2.40;99.90;;;;;;7568446;19;20042;-70
2022/12/07 06:07:16;;;;;;;63.67;27.33;;;2.40;99.90;;;;;;7559283;19;20018;-69
2022/12/07 06:09:48;;;;;;;58.30;26.70;;;2.40;99.90;;;;;;7583321;19;20022;-69
2022/12/07 06:12:35;;;;;;;53.45;24.88;;;2.40;99.90;;;;;;7581737;19;20007;-69
2022/12/07 06:15:07;;;;;;;59.80;26.23;;;2.40;99.90;;;;;;7578652;19;20077;-69
2022/12/07 06:17:39;;;;;;;57.38;27.00;;;2.40;99.90;;;;;;7593655;19;20010;-69
2022/12/07 06:20:11;;;;;;;64.18;28.50;;;2.40;99.90;;;;;;7610269;19;20010;-70
2022/12/07 06:22:43;;;;;;;48.95;24.85;;;2.40;99.90;;;;;;7596711;19;20597;-71
2022/12/07 06:25:16;;;;;;;49.95;22.05;;;2.40;99.90;;;;;;7603661;19;20021;-69
2022/12/07 06:27:48;;;;;;;43.22;22.40;;;2.40;99.90;;;;;;7540290;19;21797;-69
2022/12/07 06:30:20;;;;;;;43.55;21.42;;;2.40;99.90;;;;;;7574642;19;20017;-69
2022/12/07 06:32:52;;;;;;;46.05;22.77;;;2.40;99.90;;;;;;7559533;19;20021;-68
2022/12/07 06:35:24;;;;;;;52.75;24.25;;;2.40;99.90;;;;;;7569549;19;20469;-69
2022/12/07 06:37:56;;;;;;;48.72;23.90;;;2.40;99.90;;;;;;7578739;19;21040;-70
2022/12/07 06:40:28;;;;;;;43.83;22.08;;;2.40;99.90;;;;;;7604691;19;20094;-69
2022/12/07 06:43:01;;;;;;;54.92;23.52;;;2.40;99.90;;;;;;7603721;19;20022;-69
2022/12/07 06:45:33;;;;;;;44.45;22.27;;;2.40;99.90;;;;;;7577682;19;20033;-69
2022/12/07 06:48:05;;;;;;;50.58;24.40;;;2.50;99.90;;;;;;7588877;19;20055;-70
2022/12/07 06:50:37;;;;;;;46.88;22.98;;;2.50;99.90;;;;;;7579713;19;20010;-69
2022/12/07 06:53:09;;;;;;;45.30;24.17;;;2.50;99.90;;;;;;7581655;19;20018;-69
2022/12/07 06:55:41;;;;;;;49.47;22.95;;;2.40;99.90;;;;;;7587343;19;20044;-69
2022/12/07 06:58:14;;;;;;;39.25;20.90;;;2.40;99.90;;;;;;7595232;19;20741;-69
2022/12/07 07:00:48;;;;;;;52.42;24.48;;;2.50;99.90;;;;;;7586433;19;20093;-69
2022/12/07 07:03:20;;;;;;;45.70;23.75;;;2.70;99.90;;;;;;7568549;19;20021;-70
2022/12/07 07:05:52;;;;;;;43.63;21.95;;;2.60;99.90;;;;;;7587487;19;20018;-68
2022/12/07 07:08:24;;;;;;;46.67;23.25;;;2.50;99.90;;;;;;7574300;19;20661;-69
2022/12/07 07:10:56;;;;;;;42.38;22.65;;;2.50;99.90;;;;;;7580264;19;20654;-67
2022/12/07 07:13:28;;;;;;;45.42;23.65;;;2.50;99.90;;;;;;7596637;19;20089;-69
2022/12/07 07:16:01;;;;;;;49.03;24.02;;;2.40;99.90;;;;;;7592679;19;20526;-68
2022/12/07 07:18:33;;;;;;;54.50;24.67;;;2.50;99.90;;;;;;7570583;19;20553;-67
2022/12/07 07:21:05;;;;;;;51.50;24.85;;;2.50;99.90;;;;;;7590779;19;20529;-68
2022/12/07 07:23:37;;;;;;;52.55;25.05;;;2.50;99.90;;;;;;7584635;19;21021;-68
2022/12/07 07:26:09;;;;;;;47.80;24.63;;;2.40;99.90;;;;;;7594041;19;20021;-69
2022/12/07 07:28:41;;;;;;;47.08;22.02;;;2.40;99.90;;;;;;7590822;19;20605;-68
2022/12/07 07:31:13;;;;;;;44.17;23.10;;;2.50;99.90;;;;;;7599365;19;20396;-70
2022/12/07 07:33:47;;;;;;;45.13;21.35;;;2.50;99.90;;;;;;7581704;19;20722;-68
2022/12/07 07:36:19;;;;;;;49.28;24.20;;;2.60;99.90;;;;;;7606265;19;20457;-69
2022/12/07 07:38:51;;;;;;;41.30;21.65;;;2.70;99.90;;;;;;7596446;19;20094;-69
2022/12/07 07:41:23;;;;;;;42.17;19.52;;;2.70;99.90;;;;;;7602687;19;20018;-68
2022/12/07 07:43:55;;;;;;;44.92;21.95;;;2.70;99.90;;;;;;7607698;19;20054;-68
2022/12/07 07:46:27;;;;;;;46.80;20.80;;;2.70;99.90;;;;;;7607546;19;20942;-69
2022/12/07 07:49:00;;;;;;;51.30;22.48;;;2.60;99.90;;;;;;7593300;19;20045;-68
2022/12/07 07:51:32;;;;;;;50.22;23.95;;;2.60;99.90;;;;;;7588909;19;20018;-68
2022/12/07 07:54:04;;;;;;;41.60;19.58;;;2.60;99.90;;;;;;7595008;19;20029;-69
2022/12/07 07:56:36;;;;;;;40.83;20.85;;;2.60;99.90;;;;;;7591067;19;20029;-70
2022/12/07 07:59:08;;;;;;;42.13;21.02;;;2.50;99.90;;;;;;7594373;19;20137;-68
2022/12/07 08:01:40;;;;;;;42.88;21.20;;;2.60;99.90;;;;;;7598349;19;20025;-68
2022/12/07 08:04:12;;;;;;;38.50;19.55;;;2.60;99.90;;;;;;7594621;19;20018;-69
2022/12/07 08:06:44;;;;;;;39.17;20.15;;;2.60;99.90;;;;;;7590720;19;20014;-68
2022/12/07 08:09:17;;;;;;;36.88;19.65;;;2.60;99.90;;;;;;7591858;19;20092;-69
2022/12/07 08:11:49;;;;;;;40.10;19.63;;;2.60;99.90;;;;;;7595968;19;20542;-69
2022/12/07 08:14:21;;;;;;;41.30;20.08;;;2.50;99.90;;;;;;7596328;19;20023;-67
2022/12/07 08:16:53;;;;;;;41.35;21.30;;;2.50;99.90;;;;;;7592821;19;20022;-67
2022/12/07 08:19:25;;;;;;;39.47;17.73;;;2.60;99.90;;;;;;7595221;19;20102;-66
2022/12/07 08:21:58;;;;;;;44.28;20.80;;;2.60;99.90;;;;;;7575213;19;20019;-67
2022/12/07 08:24:32;;;;;;;39.33;17.48;;;2.70;99.90;;;;;;7591170;19;20014;-67
2022/12/07 08:27:04;;;;;;;39.38;17.35;;;2.70;99.90;;;;;;7577098;19;22805;-74
2022/12/07 08:29:36;;;;;;;34.25;16.73;;;2.70;99.90;;;;;;7591516;19;20018;-70
2022/12/07 08:32:08;;;;;;;36.45;19.48;;;2.70;99.90;;;;;;7584042;19;20018;-74
2022/12/07 08:34:41;;;;;;;39.63;14.07;;;2.70;99.90;;;;;;7580445;19;20032;-67
2022/12/07 08:37:13;;;;;;;36.35;19.17;;;2.60;99.90;;;;;;7589029;19;20014;-68
2022/12/07 08:39:45;;;;;;;36.45;19.05;;;2.70;99.90;;;;;;7594579;19;20641;-67
2022/12/07 08:42:17;;;;;;;33.10;15.93;;;2.60;99.90;;;;;;7598080;19;20880;-68
2022/12/07 08:44:50;;;;;;;33.17;18.45;;;2.60;99.90;;;;;;7590959;19;20021;-68
2022/12/07 08:47:23;;;;;;;34.97;18.48;;;2.70;99.90;;;;;;7603150;19;20068;-68
2022/12/07 08:49:55;;;;;;;34.50;18.63;;;2.70;99.90;;;;;;7590958;19;20024;-67
2022/12/07 08:52:27;;;;;;;34.25;18.40;;;2.70;99.90;;;;;;7573772;19;20052;-68
2022/12/07 08:55:00;;;;;;;37.00;17.88;;;2.80;99.90;;;;;;7534899;19;20646;-67
2022/12/07 08:57:34;;;;;;;33.63;16.65;;;2.80;99.90;;;;;;7550036;19;20022;-68
2022/12/07 09:00:07;;;;;;;29.85;14.52;;;2.80;99.90;;;;;;7584622;19;20019;-67
2022/12/07 09:02:40;;;;;;;34.20;18.20;;;2.90;99.90;;;;;;7606067;19;20018;-67
2022/12/07 09:05:14;;;;;;;33.83;18.48;;;2.90;99.90;;;;;;7592612;19;20068;-67
2022/12/07 09:07:52;;;;;;;36.83;18.25;;;2.90;99.90;;;;;;7595484;19;20094;-68
2022/12/07 09:10:25;;;;;;;22.00;11.63;;;2.90;99.90;;;;;;7598269;19;20017;-67
2022/12/07 16:57:22;;;;;;;62.17;24.80;;;0.90;99.90;;;;;;7603490;19;20406;-70
2022/12/07 16:59:55;;;;;;;53.03;24.70;;;0.80;99.90;;;;;;7629723;19;20018;-69
2022/12/07 17:02:27;;;;;;;56.65;25.63;;;0.80;99.90;;;;;;7640577;19;20029;-70
2022/12/07 17:04:59;;;;;;;51.37;23.13;;;0.30;99.90;;;;;;7634136;19;20329;-69
2022/12/07 17:07:32;;;;;;;55.10;25.67;;;0.80;99.90;;;;;;7624446;19;20303;-70
2022/12/07 17:10:05;;;;;;;51.58;24.25;;;0.90;99.90;;;;;;7609176;19;20097;-68
2022/12/07 17:12:37;;;;;;;50.38;26.33;;;1.00;99.90;;;;;;7620738;19;20561;-70
2022/12/07 17:15:16;;;;;;;56.85;29.00;;;1.00;99.90;;;;;;7617385;19;20399;-70
2022/12/07 17:17:57;;;;;;;52.75;26.45;;;1.10;99.90;;;;;;7637409;19;20018;-69
2022/12/07 17:20:28;;;;;;;56.53;28.92;;;1.10;99.90;;;;;;7639965;19;20612;-70
2022/12/07 17:23:00;;;;;;;59.35;30.45;;;1.20;99.90;;;;;;7631261;19;21078;-69
2022/12/07 17:25:32;;;;;;;62.80;28.23;;;1.30;99.90;;;;;;7623562;19;20018;-68
2022/12/07 17:28:04;;;;;;;60.83;29.40;;;1.30;99.90;;;;;;7629396;19;20532;-69
2022/12/07 17:30:38;;;;;;;57.38;29.80;;;1.40;99.90;;;;;;7639550;19;20021;-69
2022/12/07 17:33:10;;;;;;;57.83;29.75;;;1.40;99.90;;;;;;7630986;19;20105;-70
2022/12/07 17:35:42;;;;;;;55.30;28.73;;;1.50;99.90;;;;;;7615366;19;20029;-70
2022/12/07 17:38:14;;;;;;;63.08;30.02;;;1.60;99.90;;;;;;7629003;19;20018;-70
2022/12/07 17:40:46;;;;;;;61.10;29.60;;;1.60;99.90;;;;;;7633716;19;20010;-71
2022/12/07 17:43:18;;;;;;;64.57;31.38;;;1.70;99.90;;;;;;7637800;19;20014;-69
2022/12/07 17:45:50;;;;;;;62.65;31.08;;;1.70;99.90;;;;;;7633539;19;20021;-70
2022/12/07 17:48:22;;;;;;;61.50;30.60;;;1.70;99.90;;;;;;7617352;19;20305;-70
2022/12/07 17:53:50;;;;;;;64.97;32.13;;;1.80;99.90;;;;;;7635556;19;20014;-69
2022/12/07 17:56:22;;;;;;;48.88;24.83;;;1.80;99.90;;;;;;7627598;19;20021;-71
2022/12/07 17:59:02;;;;;;;63.58;32.67;;;1.80;99.90;;;;;;7635479;19;20014;-70
2022/12/07 18:01:34;;;;;;;61.63;31.63;;;1.80;99.90;;;;;;7623551;19;20014;-70
2022/12/07 18:04:07;;;;;;;67.43;32.22;;;1.90;99.90;;;;;;7624140;19;20014;-68
2022/12/07 18:06:40;;;;;;;66.88;33.90;;;1.90;99.90;;;;;;7628663;19;20011;-70
2022/12/07 18:09:12;;;;;;;60.65;31.60;;;1.90;99.90;;;;;;7596600;19;20020;-70
2022/12/07 18:11:44;;;;;;;57.08;30.27;;;1.90;99.90;;;;;;7596014;19;20044;-70
2022/12/07 18:14:17;;;;;;;60.85;31.30;;;1.90;99.90;;;;;;7131963;19;10001165;-70
2022/12/07 18:16:49;;;;;;;60.00;31.13;;;1.90;99.90;;;;;;6538969;19;10000532;-70
2022/12/07 18:19:21;;;;;;;59.05;31.40;;;1.90;99.90;;;;;;7569714;19;20018;-70
2022/12/07 18:21:54;;;;;;;59.13;31.38;;;2.00;99.90;;;;;;7583248;19;20014;-72
2022/12/07 18:24:26;;;;;;;55.08;29.98;;;2.00;99.90;;;;;;7582011;19;20014;-72
2022/12/07 18:27:06;;;;;;;57.85;31.77;;;2.00;99.90;;;;;;7575778;19;20022;-72
2022/12/07 18:29:38;;;;;;;56.45;31.35;;;2.00;99.90;;;;;;7581221;19;20020;-73
2022/12/07 18:32:10;;;;;;;52.63;28.58;;;2.00;99.90;;;;;;7553004;19;20613;-73
2022/12/07 18:34:42;;;;;;;56.72;30.33;;;2.00;99.90;;;;;;7553064;19;20022;-72
2022/12/07 18:37:14;;;;;;;54.47;29.67;;;2.00;99.90;;;;;;7590956;19;20018;-72
2022/12/07 18:39:46;;;;;;;54.80;29.20;;;2.00;99.90;;;;;;7608058;19;20410;-72
2022/12/07 18:42:18;;;;;;;53.78;28.33;;;2.00;99.90;;;;;;7599184;19;20366;-72
2022/12/07 18:44:50;;;;;;;59.08;28.60;;;2.00;99.90;;;;;;7587490;19;20021;-72
2022/12/07 18:47:22;;;;;;;48.05;27.10;;;1.90;99.90;;;;;;7584640;19;20371;-72
2022/12/07 18:49:54;;;;;;;52.28;27.98;;;1.90;99.90;;;;;;7603312;19;20020;-72
2022/12/07 18:52:26;;;;;;;57.22;29.17;;;2.00;99.90;;;;;;7598877;19;20550;-72
2022/12/07 18:55:02;;;;;;;57.13;28.10;;;2.00;99.90;;;;;;7595103;19;20833;-72
2022/12/07 18:57:34;;;;;;;49.53;28.52;;;2.00;99.90;;;;;;7602884;19;20052;-73
2022/12/07 19:00:07;;;;;;;53.20;28.67;;;2.10;99.90;;;;;;7597619;19;20513;-73
2022/12/07 19:02:39;;;;;;;53.67;30.03;;;2.10;99.90;;;;;;7602298;19;20015;-72
2022/12/07 19:05:12;;;;;;;54.88;28.35;;;2.10;99.90;;;;;;7589135;19;20876;-72
2022/12/07 19:07:45;;;;;;;53.10;28.40;;;2.10;99.90;;;;;;7578382;19;20013;-73
2022/12/07 19:10:19;;;;;;;58.13;28.90;;;2.10;99.90;;;;;;7571307;19;20022;-73
2022/12/07 19:12:51;;;;;;;53.33;27.77;;;2.10;99.90;;;;;;7578055;19;20970;-72
2022/12/07 19:15:23;;;;;;;57.53;29.40;;;2.10;99.90;;;;;;7583961;19;26238;-72
2022/12/07 19:17:55;;;;;;;51.58;26.95;;;2.10;99.90;;;;;;7586992;19;20015;-71
2022/12/07 19:20:28;;;;;;;57.45;30.05;;;2.20;99.90;;;;;;7582678;19;21583;-72
2022/12/07 19:23:00;;;;;;;56.78;30.55;;;2.20;99.90;;;;;;7586997;19;20018;-72
2022/12/07 19:25:32;;;;;;;57.30;29.95;;;2.10;99.90;;;;;;7554427;19;20350;-71
2022/12/07 19:28:07;;;;;;;59.70;31.95;;;2.20;99.90;;;;;;7570034;19;20401;-73
2022/12/07 19:30:40;;;;;;;65.47;34.80;;;2.20;99.90;;;;;;7576579;19;20025;-71
2022/12/07 19:33:12;;;;;;;65.32;33.15;;;2.20;99.90;;;;;;7597142;19;20038;-71
2022/12/07 19:35:44;;;;;;;62.03;33.10;;;2.20;99.90;;;;;;7599394;19;20387;-71
2022/12/07 19:38:16;;;;;;;69.45;35.13;;;2.20;99.90;;;;;;7603934;19;20498;-71
2022/12/07 19:40:48;;;;;;;64.05;32.92;;;2.10;99.90;;;;;;7609302;19;20481;-71
2022/12/07 19:43:20;;;;;;;64.53;33.10;;;2.10;99.90;;;;;;7605497;19;20506;-72
2022/12/07 19:45:53;;;;;;;66.22;35.15;;;2.20;99.90;;;;;;7604322;19;20018;-72
2022/12/07 19:48:25;;;;;;;64.43;35.38;;;2.20;99.90;;;;;;7605820;19;20018;-73
2022/12/07 19:51:04;;;;;;;73.90;36.42;;;2.20;99.90;;;;;;7587119;19;20358;-71
2022/12/07 19:53:36;;;;;;;72.82;37.50;;;2.30;99.90;;;;;;7600030;19;20377;-72
2022/12/07 19:56:14;;;;;;;87.15;44.17;;;2.20;99.90;;;;;;7581294;19;20718;-72
2022/12/07 19:58:47;;;;;;;84.90;44.75;;;2.20;99.90;;;;;;7587027;19;20021;-73
2022/12/07 20:01:20;;;;;;;81.95;43.38;;;2.30;99.90;;;;;;7588871;19;20417;-73
2022/12/07 20:03:52;;;;;;;74.72;41.35;;;2.30;99.90;;;;;;7609693;19;20018;-72
2022/12/07 20:06:25;;;;;;;73.13;37.55;;;2.40;99.90;;;;;;7605169;19;20626;-72
